Terminal Aerodrome Forecast
Issued by NWS

Home | Current Version | Previous Version | Graphics & Text | Print | Product List | Glossary On
Versions: 1 2 3 4 5 6 7 8 9 10 11 12 13
000
FTUS45 KGGW 192300
TAFSDY
TAF
KSDY 192337Z 2000/2024 31014KT P6SM SCT070
     FM200300 29009KT P6SM SCT060
     FM201500 31014KT P6SM SCT045
     FM202100 31018G26KT P6SM FEW200
      AMD LTD TO CLD VIS AND WIND=

USA.gov is the U.S. government's official web portal to all federal, state and local government web resources and services.